createdAt,value
2023-02-12T00:01:45.075Z,100.00
2023-02-12T00:04:11.608Z,100.00
2023-02-12T00:06:39.290Z,100.00
2023-02-12T00:09:06.155Z,100.00
2023-02-12T00:11:32.680Z,100.00
2023-02-12T00:13:59.273Z,100.00
2023-02-12T00:16:28.683Z,100.00
2023-02-12T00:18:57.117Z,100.00
2023-02-12T00:21:24.374Z,100.00
2023-02-12T00:23:50.864Z,100.00
2023-02-12T00:26:19.510Z,100.00
2023-02-12T00:28:46.103Z,100.00
2023-02-12T00:31:15.226Z,100.00
2023-02-12T00:33:41.873Z,100.00
2023-02-12T00:36:09.845Z,100.00
2023-02-12T00:38:36.364Z,100.00
2023-02-12T00:41:03.086Z,100.00
2023-02-12T00:43:29.615Z,100.00
2023-02-12T00:45:56.584Z,100.00
2023-02-12T00:48:23.274Z,100.00
2023-02-12T00:50:50.536Z,100.00
2023-02-12T00:53:17.150Z,100.00
2023-02-12T00:55:43.773Z,100.00
2023-02-12T00:58:10.368Z,100.00
2023-02-12T01:00:37.121Z,100.00
2023-02-12T01:03:04.337Z,100.00
2023-02-12T01:05:31.388Z,100.00
2023-02-12T01:07:57.998Z,100.00
2023-02-12T01:10:24.638Z,100.00
2023-02-12T01:12:51.199Z,100.00
2023-02-12T01:15:18.348Z,100.00
2023-02-12T01:17:45.089Z,100.00
2023-02-12T01:20:17.721Z,100.00
2023-02-12T01:22:44.298Z,100.00
2023-02-12T01:25:10.960Z,100.00
2023-02-12T01:27:37.595Z,100.00
2023-02-12T01:30:06.539Z,100.00
2023-02-12T01:32:34.413Z,100.00
2023-02-12T01:35:01.160Z,100.00
2023-02-12T01:37:27.984Z,100.00
2023-02-12T01:39:54.461Z,100.00
2023-02-12T01:42:21.004Z,100.00
2023-02-12T01:45:12.530Z,100.00
2023-02-12T01:47:40.547Z,100.00
2023-02-12T01:50:08.495Z,100.00
2023-02-12T01:52:36.888Z,100.00
2023-02-12T01:55:06.223Z,100.00
2023-02-12T01:57:35.197Z,100.00
2023-02-12T02:00:05.747Z,100.00
2023-02-12T02:02:32.441Z,100.00
2023-02-12T02:05:00.704Z,100.00
2023-02-12T02:07:27.478Z,100.00
2023-02-12T02:09:54.308Z,100.00
2023-02-12T02:12:39.482Z,100.00
2023-02-12T02:15:07.019Z,100.00
2023-02-12T02:17:39.677Z,100.00
2023-02-12T02:20:43.615Z,100.00
2023-02-12T02:23:29.079Z,100.00
2023-02-12T02:26:17.591Z,100.00
2023-02-12T02:28:47.100Z,100.00
2023-02-12T02:31:33.260Z,100.00
2023-02-12T02:34:09.498Z,100.00
2023-02-12T02:37:00.753Z,100.00
2023-02-12T02:39:44.225Z,100.00
2023-02-12T02:42:17.655Z,100.00
2023-02-12T02:44:49.320Z,100.00
2023-02-12T02:47:17.543Z,100.00
2023-02-12T02:49:54.942Z,100.00
2023-02-12T02:52:26.798Z,100.00
2023-02-12T02:54:56.088Z,100.00
2023-02-12T02:57:29.435Z,100.00
2023-02-12T03:00:00.488Z,100.00
2023-02-12T03:02:33.466Z,100.00
2023-02-12T03:05:07.125Z,100.00
2023-02-12T03:07:41.562Z,100.00
2023-02-12T03:10:14.261Z,100.00
2023-02-12T03:12:44.597Z,100.00
2023-02-12T03:15:32.272Z,100.00
2023-02-12T03:17:59.339Z,100.00
2023-02-12T03:20:29.728Z,100.00
2023-02-12T03:23:01.850Z,100.00
2023-02-12T03:25:35.669Z,100.00
2023-02-12T03:28:38.219Z,100.00
2023-02-12T03:31:20.761Z,100.00
2023-02-12T03:34:07.199Z,100.00
2023-02-12T03:36:49.420Z,100.00
2023-02-12T03:39:34.782Z,100.00
2023-02-12T03:42:17.466Z,100.00
2023-02-12T03:45:10.771Z,100.00
2023-02-12T03:47:46.602Z,100.00
2023-02-12T03:50:17.340Z,100.00
2023-02-12T03:52:44.303Z,100.00
2023-02-12T03:55:12.115Z,100.00
2023-02-12T03:57:42.455Z,100.00
2023-02-12T04:00:16.624Z,100.00
2023-02-12T04:02:43.638Z,100.00
2023-02-12T04:05:21.511Z,100.00
2023-02-12T04:07:48.686Z,100.00
2023-02-12T04:10:15.522Z,100.00
2023-02-12T04:12:57.883Z,100.00
2023-02-12T04:15:51.026Z,100.00
2023-02-12T04:18:36.097Z,100.00
2023-02-12T04:21:39.135Z,100.00
2023-02-12T04:24:23.712Z,100.00
2023-02-12T04:27:35.218Z,100.00
2023-02-12T04:30:13.944Z,100.00
2023-02-12T04:32:47.122Z,100.00
2023-02-12T04:35:33.098Z,100.00
2023-02-12T04:38:17.978Z,100.00
2023-02-12T04:40:44.671Z,100.00
2023-02-12T04:43:11.427Z,100.00
2023-02-12T04:45:38.327Z,100.00
2023-02-12T04:48:05.973Z,100.00
2023-02-12T04:50:40.732Z,100.00
2023-02-12T04:53:07.815Z,100.00
2023-02-12T04:55:34.393Z,100.00
2023-02-12T04:58:00.982Z,100.00
2023-02-12T05:00:27.771Z,100.00
2023-02-12T05:02:54.310Z,100.00
2023-02-12T05:05:21.554Z,100.00
2023-02-12T05:07:48.573Z,100.00
2023-02-12T05:10:15.219Z,100.00
2023-02-12T05:12:41.902Z,100.00
2023-02-12T05:15:09.410Z,100.00
2023-02-12T05:17:35.987Z,100.00
2023-02-12T05:20:02.541Z,100.00
2023-02-12T05:22:29.246Z,100.00
2023-02-12T05:24:55.765Z,100.00
2023-02-12T05:27:22.391Z,100.00
2023-02-12T05:29:49.001Z,100.00
2023-02-12T05:32:15.558Z,100.00
2023-02-12T05:34:42.220Z,100.00
2023-02-12T05:37:08.904Z,100.00
2023-02-12T05:39:35.669Z,100.00
2023-02-12T05:42:02.178Z,100.00
2023-02-12T05:44:28.757Z,100.00
2023-02-12T05:46:55.287Z,100.00
2023-02-12T05:49:21.845Z,100.00
2023-02-12T05:51:48.586Z,100.00
2023-02-12T05:54:15.243Z,100.00
2023-02-12T05:56:47.022Z,100.00
2023-02-12T05:59:16.333Z,100.00
2023-02-12T06:01:44.489Z,100.00
2023-02-12T06:04:24.413Z,100.00
2023-02-12T06:06:52.381Z,100.00
2023-02-12T06:09:18.947Z,100.00
2023-02-12T06:11:45.569Z,100.00
2023-02-12T06:14:15.710Z,100.00
2023-02-12T06:16:44.997Z,100.00
2023-02-12T06:19:11.521Z,100.00
2023-02-12T06:21:38.113Z,100.00
2023-02-12T06:24:04.912Z,100.00
2023-02-12T06:26:31.463Z,100.00
2023-02-12T06:28:58.012Z,100.00
2023-02-12T06:31:27.656Z,100.00
2023-02-12T06:33:55.998Z,100.00
2023-02-12T06:36:22.822Z,100.00
2023-02-12T06:38:49.863Z,100.00
2023-02-12T06:41:16.998Z,100.00
2023-02-12T06:43:43.736Z,100.00
2023-02-12T06:46:11.084Z,100.00
2023-02-12T06:48:38.711Z,100.00
2023-02-12T06:51:16.401Z,100.00
2023-02-12T06:53:44.157Z,100.00
2023-02-12T06:56:13.139Z,100.00
2023-02-12T06:58:41.375Z,100.00
2023-02-12T07:01:13.562Z,100.00
2023-02-12T07:03:54.931Z,100.00
2023-02-12T07:06:22.602Z,100.00
2023-02-12T07:08:49.593Z,100.00
2023-02-12T07:11:16.557Z,100.00
2023-02-12T07:13:44.514Z,100.00
2023-02-12T07:16:13.901Z,100.00
2023-02-12T07:18:41.280Z,100.00
2023-02-12T07:21:09.260Z,100.00
2023-02-12T07:23:36.238Z,100.00
2023-02-12T07:26:13.195Z,100.00
2023-02-12T07:28:40.210Z,100.00
2023-02-12T07:31:15.011Z,100.00
2023-02-12T07:33:42.223Z,100.00
2023-02-12T07:36:14.291Z,100.00
2023-02-12T07:38:41.457Z,100.00
2023-02-12T07:41:13.712Z,100.00
2023-02-12T07:43:44.313Z,100.00
2023-02-12T07:46:14.842Z,100.00
2023-02-12T07:48:41.419Z,100.00
2023-02-12T07:51:10.162Z,100.00
2023-02-12T07:53:37.093Z,100.00
2023-02-12T07:56:07.769Z,100.00
2023-02-12T07:58:34.659Z,100.00
2023-02-12T08:01:01.520Z,100.00
2023-02-12T08:03:28.884Z,100.00
2023-02-12T08:05:56.845Z,100.00
2023-02-12T08:08:23.480Z,100.00
2023-02-12T08:10:50.033Z,100.00
2023-02-12T08:13:16.597Z,100.00
2023-02-12T08:15:43.741Z,100.00
2023-02-12T08:18:10.240Z,100.00
2023-02-12T08:20:36.784Z,100.00
2023-02-12T08:23:03.466Z,100.00
2023-02-12T08:25:30.078Z,100.00
2023-02-12T08:27:56.591Z,100.00
2023-02-12T08:30:23.148Z,99.67
2023-02-12T08:32:50.612Z,99.50
2023-02-12T08:35:17.242Z,99.16
2023-02-12T08:37:43.963Z,98.66
2023-02-12T08:40:14.073Z,98.65
2023-02-12T08:42:40.603Z,98.72
2023-02-12T08:45:08.254Z,98.82
2023-02-12T08:47:35.117Z,98.50
2023-02-12T08:50:01.686Z,98.39
2023-02-12T08:52:28.340Z,98.44
2023-02-12T08:54:55.071Z,98.04
2023-02-12T08:57:21.644Z,97.73
2023-02-12T08:59:49.106Z,97.74
2023-02-12T09:02:15.706Z,97.27
2023-02-12T09:04:42.275Z,97.04
2023-02-12T09:07:10.861Z,96.71
2023-02-12T09:09:37.528Z,96.18
2023-02-12T09:12:04.286Z,96.00
2023-02-12T09:14:30.805Z,95.54
2023-02-12T09:16:58.409Z,95.23
2023-02-12T09:19:25.201Z,94.84
2023-02-12T09:21:55.903Z,94.78
2023-02-12T09:24:23.356Z,94.56
2023-02-12T09:26:49.878Z,93.77
2023-02-12T09:29:16.493Z,93.93
2023-02-12T09:31:43.678Z,93.79
2023-02-12T09:34:10.419Z,93.17
2023-02-12T09:36:36.971Z,92.99
2023-02-12T09:39:05.637Z,92.73
2023-02-12T09:41:51.436Z,92.17
2023-02-12T09:44:25.652Z,92.09
2023-02-12T09:47:11.105Z,91.79
2023-02-12T09:50:11.310Z,91.45
2023-02-12T09:52:38.365Z,91.32
2023-02-12T09:55:05.216Z,91.22
2023-02-12T09:57:35.246Z,90.72
2023-02-12T10:00:16.568Z,90.29
2023-02-12T10:02:43.284Z,89.81
2023-02-12T10:05:20.252Z,89.61
2023-02-12T10:07:59.366Z,88.92
2023-02-12T10:10:37.934Z,88.92
2023-02-12T10:13:25.940Z,88.36
2023-02-12T10:16:01.616Z,88.46
2023-02-12T10:18:59.787Z,88.94
2023-02-12T10:22:00.198Z,88.58
2023-02-12T10:24:48.298Z,88.30
2023-02-12T10:27:17.941Z,88.12
2023-02-12T10:29:46.392Z,87.87
2023-02-12T10:32:18.888Z,87.92
2023-02-12T10:34:45.702Z,87.69
2023-02-12T10:37:32.683Z,87.51
2023-02-12T10:40:05.279Z,87.06
2023-02-12T10:42:46.492Z,86.60
2023-02-12T10:45:19.348Z,85.74
2023-02-12T10:47:47.384Z,85.73
2023-02-12T10:50:21.037Z,85.71
2023-02-12T10:52:53.373Z,85.23
2023-02-12T10:55:29.188Z,85.31
2023-02-12T10:57:56.538Z,84.51
2023-02-12T11:00:35.329Z,84.40
2023-02-12T11:03:06.504Z,84.71
2023-02-12T11:05:35.967Z,84.77
2023-02-12T11:08:02.824Z,84.52
2023-02-12T11:10:32.189Z,84.12
2023-02-12T11:13:03.088Z,83.93
2023-02-12T11:15:47.451Z,83.80
2023-02-12T11:18:28.604Z,82.94
2023-02-12T11:21:07.356Z,82.32
2023-02-12T11:23:34.953Z,81.63
2023-02-12T11:26:05.184Z,81.38
2023-02-12T11:28:34.429Z,81.44
2023-02-12T11:31:03.781Z,81.52
2023-02-12T11:33:41.424Z,80.96
2023-02-12T11:36:10.859Z,80.99
2023-02-12T11:38:39.796Z,79.94
2023-02-12T11:41:18.917Z,80.61
2023-02-12T11:43:45.665Z,80.61
2023-02-12T11:46:19.704Z,80.69
2023-02-12T11:48:47.674Z,80.49
2023-02-12T11:51:25.073Z,80.75
2023-02-12T11:53:53.372Z,81.08
2023-02-12T11:56:20.241Z,80.90
2023-02-12T11:58:47.992Z,81.30
2023-02-12T12:01:30.751Z,81.66
2023-02-12T12:04:15.400Z,81.91
2023-02-12T12:06:47.330Z,82.05
2023-02-12T12:09:20.035Z,81.98
2023-02-12T12:12:43.661Z,82.26
2023-02-12T12:15:36.009Z,82.15
2023-02-12T12:18:40.744Z,83.01
2023-02-12T12:21:31.223Z,82.56
2023-02-12T12:24:10.531Z,82.69
2023-02-12T12:26:39.721Z,82.85
2023-02-12T12:29:22.048Z,82.93
2023-02-12T12:31:58.300Z,82.75
2023-02-12T12:34:26.299Z,83.02
2023-02-12T12:37:05.680Z,83.38
2023-02-12T12:39:36.558Z,83.42
2023-02-12T12:42:24.565Z,83.17
2023-02-12T12:45:19.882Z,82.99
2023-02-12T12:47:59.533Z,83.43
2023-02-12T12:50:36.028Z,83.28
2023-02-12T12:53:16.332Z,83.41
2023-02-12T12:56:29.506Z,83.14
2023-02-12T12:59:24.034Z,83.24
2023-02-12T13:01:57.390Z,83.14
2023-02-12T13:04:52.381Z,83.24
2023-02-12T13:07:29.048Z,83.07
2023-02-12T13:10:20.787Z,83.54
2023-02-12T13:13:31.975Z,83.76
2023-02-12T13:16:20.593Z,83.52
2023-02-12T13:19:11.318Z,83.06
2023-02-12T13:21:53.065Z,82.97
2023-02-12T13:24:27.763Z,82.62
2023-02-12T13:27:04.529Z,82.40
2023-02-12T13:29:35.507Z,82.26
2023-02-12T13:32:12.387Z,82.10
2023-02-12T13:34:40.009Z,82.19
2023-02-12T13:37:07.896Z,81.69
2023-02-12T13:39:42.617Z,81.31
2023-02-12T13:42:37.786Z,80.98
2023-02-12T13:45:19.583Z,81.01
2023-02-12T13:47:56.484Z,81.24
2023-02-12T13:50:42.303Z,81.09
2023-02-12T13:53:18.090Z,81.00
2023-02-12T13:56:02.084Z,81.26
2023-02-12T13:58:37.683Z,81.23
2023-02-12T14:01:12.225Z,81.41
2023-02-12T14:03:39.268Z,81.54
2023-02-12T14:06:25.108Z,81.31
2023-02-12T14:08:54.906Z,81.33
2023-02-12T14:11:23.154Z,81.33
2023-02-12T14:13:55.956Z,81.82
2023-02-12T14:16:28.619Z,81.86
2023-02-12T14:19:32.819Z,81.37
2023-02-12T14:22:13.151Z,81.33
2023-02-12T14:24:49.342Z,81.81
2023-02-12T14:27:44.097Z,82.06
2023-02-12T14:30:10.567Z,82.01
2023-02-12T14:32:46.137Z,82.22
2023-02-12T14:35:34.519Z,83.21
2023-02-12T14:38:11.570Z,83.36
2023-02-12T14:40:48.887Z,83.21
2023-02-12T14:43:31.699Z,83.58
2023-02-12T14:46:23.270Z,84.01
2023-02-12T14:48:57.762Z,84.23
2023-02-12T14:51:38.225Z,84.32
2023-02-12T14:54:05.839Z,84.44
2023-02-12T14:56:39.621Z,84.39
2023-02-12T14:59:07.054Z,84.14
2023-02-12T15:01:35.271Z,84.44
2023-02-12T15:04:14.925Z,84.51
2023-02-12T15:06:48.547Z,84.57
2023-02-12T15:09:21.686Z,84.45
2023-02-12T15:11:59.648Z,84.43
2023-02-12T15:14:36.208Z,84.25
2023-02-12T15:17:12.379Z,84.13
2023-02-12T15:19:43.322Z,83.84
2023-02-12T15:22:26.891Z,84.28
2023-02-12T15:24:53.584Z,84.23
2023-02-12T15:27:21.912Z,84.08
2023-02-12T15:29:50.592Z,84.26
2023-02-12T15:32:25.230Z,84.17
2023-02-12T15:34:52.460Z,83.77
2023-02-12T15:37:23.980Z,83.85
2023-02-12T15:39:53.000Z,83.52
2023-02-12T15:42:38.475Z,84.10
2023-02-12T15:45:16.486Z,83.92
2023-02-12T15:47:44.060Z,84.21
2023-02-12T15:50:16.696Z,84.50
2023-02-12T15:52:45.433Z,84.38
2023-02-12T15:55:18.186Z,84.81
2023-02-12T15:57:50.165Z,84.87
2023-02-12T16:00:37.860Z,85.09
2023-02-12T16:03:04.443Z,85.40
2023-02-12T16:05:32.979Z,85.23
2023-02-12T16:08:01.230Z,85.47
2023-02-12T16:10:27.990Z,85.41
2023-02-12T16:12:54.632Z,85.85
2023-02-12T16:15:28.430Z,86.00
2023-02-12T16:17:56.514Z,86.26
2023-02-12T16:20:31.158Z,86.87
2023-02-12T16:22:59.730Z,86.83
2023-02-12T16:25:30.352Z,87.39
2023-02-12T16:28:00.946Z,87.59
2023-02-12T16:30:42.805Z,88.09
2023-02-12T16:33:34.154Z,88.53
2023-02-12T16:36:04.314Z,88.80
2023-02-12T16:38:46.929Z,88.98
2023-02-12T16:41:28.500Z,89.19
2023-02-12T16:44:01.159Z,89.31
2023-02-12T16:46:51.610Z,89.08
2023-02-12T16:49:22.023Z,89.10
2023-02-12T16:51:49.544Z,89.38
2023-02-12T16:54:38.680Z,89.12
2023-02-12T16:57:05.221Z,88.82
2023-02-12T16:59:31.810Z,88.75
2023-02-12T17:02:01.169Z,88.52
2023-02-12T17:04:28.241Z,87.84
2023-02-12T17:06:54.967Z,88.22
2023-02-12T17:09:35.600Z,88.06
2023-02-12T17:12:02.447Z,88.29
2023-02-12T17:14:28.990Z,88.37
2023-02-12T17:16:55.791Z,88.12
2023-02-12T17:19:22.984Z,88.03
2023-02-12T17:21:51.286Z,88.51
2023-02-12T17:24:21.936Z,88.43
2023-02-12T17:26:50.711Z,88.58
2023-02-12T17:29:18.690Z,88.59
2023-02-12T17:31:45.537Z,88.66
2023-02-12T17:34:13.121Z,88.48
2023-02-12T17:36:39.920Z,88.35
2023-02-12T17:39:08.294Z,88.38
2023-02-12T17:41:35.205Z,88.13
2023-02-12T17:44:01.990Z,88.30
2023-02-12T17:46:30.418Z,88.48
2023-02-12T17:48:58.055Z,89.02
2023-02-12T17:51:25.050Z,89.43
2023-02-12T17:53:51.695Z,90.27
2023-02-12T17:56:21.738Z,90.47
2023-02-12T17:58:49.256Z,90.83
2023-02-12T18:01:18.393Z,91.01
2023-02-12T18:03:45.294Z,91.26
2023-02-12T18:06:14.409Z,91.87
2023-02-12T18:08:41.581Z,92.18
2023-02-12T18:11:10.773Z,92.61
2023-02-12T18:13:38.503Z,92.62
2023-02-12T18:16:09.654Z,92.71
2023-02-12T18:18:37.630Z,92.96
2023-02-12T18:21:11.713Z,93.08
2023-02-12T18:23:38.844Z,93.04
2023-02-12T18:26:10.620Z,93.08
2023-02-12T18:28:37.793Z,93.08
2023-02-12T18:31:05.362Z,93.35
2023-02-12T18:33:32.553Z,93.29
2023-02-12T18:36:05.325Z,93.26
2023-02-12T18:38:32.500Z,93.40
2023-02-12T18:41:00.644Z,93.72
2023-02-12T18:43:27.671Z,93.58
2023-02-12T18:45:57.222Z,93.53
2023-02-12T18:48:23.862Z,93.63
2023-02-12T18:50:51.909Z,94.06
2023-02-12T18:53:19.549Z,93.78
2023-02-12T18:55:46.579Z,93.70
2023-02-12T18:58:13.192Z,93.77
2023-02-12T19:00:39.752Z,93.67
2023-02-12T19:03:07.267Z,93.52
2023-02-12T19:05:34.028Z,93.07
2023-02-12T19:08:00.645Z,93.37
2023-02-12T19:10:27.286Z,93.46
2023-02-12T19:12:53.957Z,93.45
2023-02-12T19:15:20.571Z,93.41
2023-02-12T19:17:49.216Z,93.33
2023-02-12T19:20:16.893Z,93.45
2023-02-12T19:22:46.367Z,93.57
2023-02-12T19:25:13.205Z,93.75
2023-02-12T19:27:40.086Z,93.71
2023-02-12T19:30:07.939Z,93.70
2023-02-12T19:32:36.844Z,93.85
2023-02-12T19:35:03.384Z,93.89
2023-02-12T19:37:36.556Z,93.77
2023-02-12T19:40:03.622Z,93.59
2023-02-12T19:42:31.171Z,93.77
2023-02-12T19:44:57.761Z,93.65
2023-02-12T19:47:25.589Z,93.30
2023-02-12T19:49:52.206Z,93.70
2023-02-12T19:52:19.805Z,93.23
2023-02-12T19:54:46.450Z,93.00
2023-02-12T19:57:15.825Z,93.18
2023-02-12T19:59:42.487Z,92.89
2023-02-12T20:02:10.225Z,92.76
2023-02-12T20:04:37.853Z,92.63
2023-02-12T20:07:04.791Z,92.57
2023-02-12T20:09:31.370Z,92.42
2023-02-12T20:11:57.979Z,92.38
2023-02-12T20:14:25.860Z,91.94
2023-02-12T20:16:55.540Z,91.83
2023-02-12T20:19:25.309Z,92.05
2023-02-12T20:21:56.139Z,92.23
2023-02-12T20:24:24.001Z,92.29
2023-02-12T20:26:51.129Z,92.31
2023-02-12T20:29:17.731Z,92.18
2023-02-12T20:31:45.262Z,92.30
2023-02-12T20:34:14.357Z,92.32
2023-02-12T20:36:43.222Z,92.32
2023-02-12T20:39:11.301Z,92.17
2023-02-12T20:41:38.126Z,91.88
2023-02-12T20:44:06.397Z,92.13
2023-02-12T20:46:36.193Z,91.94
2023-02-12T20:49:02.955Z,91.66
2023-02-12T20:51:29.466Z,91.59
2023-02-12T20:53:59.338Z,92.01
2023-02-12T20:56:28.153Z,91.70
2023-02-12T20:58:54.932Z,91.55
2023-02-12T21:01:25.687Z,91.60
2023-02-12T21:03:53.956Z,91.40
2023-02-12T21:06:21.766Z,91.58
2023-02-12T21:08:48.847Z,91.26
2023-02-12T21:11:18.471Z,91.29
2023-02-12T21:13:58.373Z,91.16
2023-02-12T21:16:30.246Z,91.14
2023-02-12T21:18:57.082Z,91.07
2023-02-12T21:21:25.959Z,90.54
2023-02-12T21:23:54.909Z,90.27
2023-02-12T21:26:25.041Z,90.39
2023-02-12T21:28:52.637Z,90.23
2023-02-12T21:31:22.981Z,90.12
2023-02-12T21:33:51.424Z,89.90
2023-02-12T21:36:29.509Z,89.73
2023-02-12T21:38:59.492Z,89.45
2023-02-12T21:41:29.473Z,89.40
2023-02-12T21:44:01.414Z,89.44
2023-02-12T21:46:28.887Z,89.44
2023-02-12T21:48:56.188Z,89.61
2023-02-12T21:51:32.757Z,89.75
2023-02-12T21:54:01.392Z,89.55
2023-02-12T21:56:28.698Z,89.81
2023-02-12T21:58:55.817Z,89.92
2023-02-12T22:01:25.295Z,89.80
2023-02-12T22:03:52.582Z,90.33
2023-02-12T22:06:22.318Z,90.27
2023-02-12T22:08:49.774Z,90.15
2023-02-12T22:11:16.451Z,90.32
2023-02-12T22:13:43.459Z,90.42
2023-02-12T22:16:21.855Z,90.22
2023-02-12T22:18:49.156Z,90.21
2023-02-12T22:21:17.118Z,90.34
2023-02-12T22:23:45.001Z,90.29
2023-02-12T22:26:25.422Z,90.48
2023-02-12T22:29:01.281Z,90.67
2023-02-12T22:31:38.974Z,90.60
2023-02-12T22:34:09.846Z,90.66
2023-02-12T22:36:38.210Z,90.25
2023-02-12T22:39:05.188Z,90.28
2023-02-12T22:41:31.947Z,90.41
2023-02-12T22:44:00.259Z,90.30
2023-02-12T22:46:27.116Z,90.33
2023-02-12T22:48:53.993Z,90.28
2023-02-12T22:51:23.291Z,90.01
2023-02-12T22:53:49.877Z,90.46
2023-02-12T22:56:16.574Z,90.67
2023-02-12T22:58:43.145Z,90.49
2023-02-12T23:01:12.103Z,90.36
2023-02-12T23:03:38.816Z,90.41
2023-02-12T23:06:07.983Z,90.52
2023-02-12T23:08:34.889Z,90.48
2023-02-12T23:11:01.415Z,90.54
2023-02-12T23:13:30.183Z,90.63
2023-02-12T23:15:57.455Z,90.32
2023-02-12T23:18:24.295Z,90.88
2023-02-12T23:20:51.496Z,90.73
2023-02-12T23:23:18.587Z,91.11
2023-02-12T23:25:45.262Z,90.97
2023-02-12T23:28:11.949Z,91.57
2023-02-12T23:30:38.725Z,91.71
2023-02-12T23:33:05.406Z,92.23
2023-02-12T23:35:32.199Z,92.19
2023-02-12T23:37:58.735Z,92.32
2023-02-12T23:40:25.427Z,92.60
2023-02-12T23:42:51.976Z,92.59
2023-02-12T23:45:18.699Z,93.01
2023-02-12T23:47:45.227Z,93.13
2023-02-12T23:50:11.828Z,93.76
2023-02-12T23:52:38.422Z,94.09
2023-02-12T23:55:05.276Z,93.89
2023-02-12T23:57:31.956Z,94.20
2023-02-12T23:59:58.550Z,94.24
